createdAt,value
2018-08-24T00:02:28.275Z,72.81
2018-08-24T00:04:56.868Z,72.88
2018-08-24T00:07:25.812Z,72.14
2018-08-24T00:09:54.367Z,72.05
2018-08-24T00:12:22.955Z,72.26
2018-08-24T00:14:51.693Z,72.33
2018-08-24T00:17:25.476Z,72.32
2018-08-24T00:19:54.432Z,71.70
2018-08-24T00:22:23.007Z,72.05
2018-08-24T00:24:51.583Z,71.72
2018-08-24T00:27:20.488Z,71.87
2018-08-24T00:29:49.072Z,71.77
2018-08-24T00:32:17.646Z,71.24
2018-08-24T00:34:46.248Z,71.60
2018-08-24T00:37:14.810Z,71.70
2018-08-24T00:39:44.811Z,71.24
2018-08-24T00:42:14.291Z,71.41
2018-08-24T00:44:43.211Z,71.60
2018-08-24T00:47:11.911Z,71.55
2018-08-24T00:49:40.619Z,72.04
2018-08-24T00:52:09.272Z,72.69
2018-08-24T00:54:37.843Z,72.66
2018-08-24T00:57:06.692Z,73.18
2018-08-24T00:59:35.254Z,72.96
2018-08-24T01:02:03.923Z,73.44
2018-08-24T01:04:35.913Z,73.66
2018-08-24T01:07:09.712Z,73.08
2018-08-24T01:09:39.137Z,73.43
2018-08-24T01:12:17.514Z,73.36
2018-08-24T01:14:48.267Z,74.39
2018-08-24T01:17:21.912Z,73.85
2018-08-24T01:19:50.867Z,73.55
2018-08-24T01:22:19.419Z,72.47
2018-08-24T01:24:47.995Z,72.60
2018-08-24T01:27:16.935Z,72.47
2018-08-24T01:29:45.483Z,72.41
2018-08-24T01:32:15.223Z,71.75
2018-08-24T01:34:43.800Z,72.17
2018-08-24T01:37:12.404Z,72.34
2018-08-24T01:39:40.960Z,71.81
2018-08-24T01:42:09.700Z,71.17
2018-08-24T01:44:38.257Z,71.73
2018-08-24T01:47:06.822Z,71.57
2018-08-24T01:49:35.719Z,70.74
2018-08-24T01:52:04.312Z,71.20
2018-08-24T01:54:32.875Z,70.51
2018-08-24T01:57:01.559Z,69.98
2018-08-24T01:59:30.124Z,70.30
2018-08-24T02:01:58.676Z,70.40
2018-08-24T02:04:27.267Z,70.24
2018-08-24T02:06:55.831Z,69.62
2018-08-24T02:09:24.675Z,70.13
2018-08-24T02:11:53.271Z,70.03
2018-08-24T02:14:27.058Z,70.29
2018-08-24T02:16:55.695Z,69.80
2018-08-24T02:19:29.603Z,70.21
2018-08-24T02:22:03.624Z,70.13
2018-08-24T02:24:32.207Z,69.30
2018-08-24T02:27:00.775Z,69.24
2018-08-24T02:29:29.663Z,69.19
2018-08-24T02:31:58.248Z,69.02
2018-08-24T02:34:26.824Z,69.15
2018-08-24T02:36:55.415Z,68.65
2018-08-24T02:39:23.976Z,68.82
2018-08-24T02:41:52.571Z,68.68
2018-08-24T02:44:21.241Z,68.01
2018-08-24T02:46:49.816Z,67.60
2018-08-24T02:49:18.371Z,68.17
2018-08-24T02:51:47.840Z,67.87
2018-08-24T02:54:16.401Z,67.71
2018-08-24T02:56:44.958Z,68.27
2018-08-24T02:59:13.895Z,67.93
2018-08-24T03:01:42.500Z,68.72
2018-08-24T03:04:11.064Z,69.09
2018-08-24T03:06:39.684Z,69.49
2018-08-24T03:09:10.492Z,69.10
2018-08-24T03:11:39.068Z,69.39
2018-08-24T03:14:07.891Z,69.34
2018-08-24T03:16:36.444Z,68.94
2018-08-24T03:19:05.437Z,69.20
2018-08-24T03:21:33.995Z,68.88
2018-08-24T03:24:02.561Z,68.22
2018-08-24T03:26:31.502Z,68.07
2018-08-24T03:29:00.152Z,68.69
2018-08-24T03:31:28.728Z,68.63
2018-08-24T03:33:57.651Z,67.85
2018-08-24T03:36:26.211Z,67.57
2018-08-24T03:38:54.759Z,68.42
2018-08-24T03:41:23.359Z,68.57
2018-08-24T03:43:51.919Z,68.16
2018-08-24T03:46:20.479Z,68.00
2018-08-24T03:48:49.149Z,67.85
2018-08-24T03:51:17.708Z,67.88
2018-08-24T03:53:46.256Z,68.06
2018-08-24T03:56:15.111Z,68.33
2018-08-24T03:58:43.668Z,67.81
2018-08-24T04:01:12.237Z,68.28
2018-08-24T04:03:40.824Z,68.34
2018-08-24T04:06:09.408Z,68.16
2018-08-24T04:08:37.960Z,68.02
2018-08-24T04:11:06.923Z,68.35
2018-08-24T04:13:35.592Z,68.42
2018-08-24T04:16:04.148Z,68.89
2018-08-24T04:18:32.727Z,69.54
2018-08-24T04:21:01.289Z,69.04
2018-08-24T04:23:29.835Z,69.40
2018-08-24T04:25:58.817Z,68.97
2018-08-24T04:31:20.416Z,68.72
2018-08-24T04:33:48.984Z,68.55
2018-08-24T04:36:17.583Z,68.41
2018-08-24T04:38:46.443Z,68.79
2018-08-24T04:41:15.051Z,68.78
2018-08-24T04:43:43.599Z,68.85
2018-08-24T04:46:12.360Z,69.09
2018-08-24T04:48:40.953Z,69.35
2018-08-24T04:51:09.505Z,68.74
2018-08-24T04:53:40.447Z,69.10
2018-08-24T04:56:20.144Z,69.46
2018-08-24T04:58:48.752Z,69.79
2018-08-24T05:01:17.325Z,69.32
2018-08-24T05:03:45.879Z,69.05
2018-08-24T05:06:14.478Z,69.55
2018-08-24T05:08:43.030Z,69.24
2018-08-24T05:11:11.603Z,69.47
2018-08-24T05:13:40.543Z,68.90
2018-08-24T05:16:09.096Z,68.53
2018-08-24T05:18:37.654Z,68.33
2018-08-24T05:21:06.412Z,68.39
2018-08-24T05:23:34.967Z,68.02
2018-08-24T05:26:03.550Z,67.92
2018-08-24T05:28:32.139Z,68.49
2018-08-24T05:31:00.699Z,68.28
2018-08-24T05:33:29.263Z,68.40
2018-08-24T05:35:57.877Z,68.34
2018-08-24T05:38:26.436Z,67.80
2018-08-24T05:40:55.004Z,67.44
2018-08-24T05:43:23.619Z,67.53
2018-08-24T05:45:52.183Z,68.02
2018-08-24T05:48:20.774Z,67.53
2018-08-24T05:50:49.437Z,67.85
2018-08-24T05:53:17.986Z,67.63
2018-08-24T05:55:46.632Z,67.90
2018-08-24T05:58:15.475Z,67.53
2018-08-24T06:00:46.805Z,67.18
2018-08-24T06:03:15.418Z,67.24
2018-08-24T06:05:49.338Z,67.32
2018-08-24T06:08:18.003Z,66.58
2018-08-24T06:10:46.572Z,66.63
2018-08-24T06:13:17.972Z,67.15
2018-08-24T06:15:47.884Z,66.84
2018-08-24T06:18:16.635Z,66.39
2018-08-24T06:20:45.628Z,66.73
2018-08-24T06:23:14.907Z,66.86
2018-08-24T06:25:43.487Z,65.41
2018-08-24T06:28:12.412Z,65.34
2018-08-24T06:30:40.967Z,64.73
2018-08-24T06:33:09.528Z,64.48
2018-08-24T06:35:38.204Z,64.81
2018-08-24T06:38:06.884Z,64.91
2018-08-24T06:40:35.439Z,64.42
2018-08-24T06:43:04.052Z,62.74
2018-08-24T06:45:32.607Z,59.47
2018-08-24T06:48:01.159Z,59.15
2018-08-24T06:50:29.756Z,59.71
2018-08-24T06:52:58.329Z,59.64
2018-08-24T06:55:26.872Z,59.47
2018-08-24T06:57:55.831Z,59.30
2018-08-24T07:00:30.403Z,59.48
2018-08-24T07:03:00.073Z,59.13
2018-08-24T07:05:28.683Z,59.82
2018-08-24T07:07:57.239Z,59.41
2018-08-24T07:10:25.906Z,59.57
2018-08-24T07:12:54.621Z,59.48
2018-08-24T07:15:23.179Z,58.53
2018-08-24T07:17:56.927Z,58.39
2018-08-24T07:20:25.502Z,58.00
2018-08-24T07:22:54.055Z,58.26
2018-08-24T07:25:22.848Z,58.21
2018-08-24T07:27:51.423Z,58.15
2018-08-24T07:30:20.080Z,57.42
2018-08-24T07:32:48.945Z,58.42
2018-08-24T07:35:17.552Z,58.19
2018-08-24T07:37:46.305Z,58.74
2018-08-24T07:40:15.643Z,57.50
2018-08-24T07:42:44.208Z,57.03
2018-08-24T07:45:12.783Z,57.06
2018-08-24T07:47:41.376Z,56.55
2018-08-24T07:50:09.940Z,57.25
2018-08-24T07:52:38.487Z,57.11
2018-08-24T07:55:07.804Z,55.90
2018-08-24T07:57:36.359Z,56.12
2018-08-24T08:00:05.387Z,54.87
2018-08-24T08:02:39.387Z,55.28
2018-08-24T08:05:07.960Z,55.57
2018-08-24T08:07:36.500Z,56.04
2018-08-24T08:10:05.283Z,56.49
2018-08-24T08:12:33.863Z,55.60
2018-08-24T08:15:10.496Z,54.56
2018-08-24T08:17:40.460Z,54.20
2018-08-24T08:20:09.936Z,54.05
2018-08-24T08:22:38.619Z,53.04
2018-08-24T08:25:07.227Z,50.29
2018-08-24T08:27:35.945Z,49.24
2018-08-24T08:30:05.868Z,49.64
2018-08-24T08:32:34.453Z,50.22
2018-08-24T08:35:03.027Z,50.29
2018-08-24T08:37:31.572Z,49.18
2018-08-24T08:40:02.431Z,47.94
2018-08-24T08:42:31.055Z,48.55
2018-08-24T08:45:00.147Z,46.66
2018-08-24T08:47:28.728Z,45.61
2018-08-24T08:49:57.288Z,46.10
2018-08-24T08:52:25.835Z,44.42
2018-08-24T08:54:54.511Z,43.72
2018-08-24T08:57:23.212Z,44.23
2018-08-24T08:59:51.763Z,43.94
2018-08-24T09:02:20.572Z,44.64
2018-08-24T09:04:49.108Z,45.64
2018-08-24T09:07:17.661Z,46.33
2018-08-24T09:09:46.277Z,44.01
2018-08-24T09:12:14.824Z,44.24
2018-08-24T09:14:43.375Z,44.10
2018-08-24T09:17:17.276Z,45.00
2018-08-24T09:19:51.217Z,45.43
2018-08-24T09:22:25.336Z,45.80
2018-08-24T09:24:59.203Z,46.85
2018-08-24T09:27:36.388Z,46.84
2018-08-24T09:30:06.067Z,47.59
2018-08-24T09:32:34.743Z,46.64
2018-08-24T09:35:03.295Z,48.20
2018-08-24T09:37:38.142Z,47.79
2018-08-24T09:40:07.951Z,48.46
2018-08-24T09:42:36.579Z,49.34
2018-08-24T09:45:05.487Z,50.52
2018-08-24T09:47:39.135Z,50.31
2018-08-24T09:50:13.175Z,52.26
2018-08-24T09:52:41.903Z,52.73
2018-08-24T09:55:10.443Z,52.14
2018-08-24T09:57:38.996Z,51.43
2018-08-24T10:00:08.592Z,49.48
2018-08-24T10:02:43.977Z,48.30
2018-08-24T10:05:17.846Z,47.18
2018-08-24T10:07:51.499Z,45.83
2018-08-24T10:10:20.180Z,47.38
2018-08-24T10:12:48.729Z,46.96
2018-08-24T10:15:17.276Z,46.22
2018-08-24T10:17:46.044Z,47.17
2018-08-24T10:20:14.599Z,47.54
2018-08-24T10:22:43.134Z,47.13
2018-08-24T10:25:11.704Z,43.50
2018-08-24T10:27:40.405Z,42.23
2018-08-24T10:30:08.939Z,40.42
2018-08-24T10:32:37.499Z,40.07
2018-08-24T10:35:06.049Z,40.01
2018-08-24T10:37:34.592Z,43.72
2018-08-24T10:40:03.556Z,45.51
2018-08-24T10:42:32.103Z,47.37
2018-08-24T10:45:00.683Z,49.81
2018-08-24T10:47:29.280Z,54.50
2018-08-24T10:49:57.867Z,59.39
2018-08-24T10:52:26.411Z,61.95
2018-08-24T10:54:55.101Z,63.46
2018-08-24T10:57:23.684Z,64.85
2018-08-24T10:59:52.239Z,64.86
2018-08-24T11:02:21.083Z,67.15
2018-08-24T11:04:49.654Z,69.57
2018-08-24T11:07:18.326Z,69.02
2018-08-24T11:09:47.174Z,68.22
2018-08-24T11:12:15.712Z,67.57
2018-08-24T11:14:44.277Z,68.16
2018-08-24T11:17:13.139Z,68.40
2018-08-24T11:19:41.695Z,68.46
2018-08-24T11:22:10.244Z,67.53
2018-08-24T11:24:38.968Z,68.96
2018-08-24T11:27:07.512Z,67.36
2018-08-24T11:29:36.079Z,66.99
2018-08-24T11:32:04.675Z,66.11
2018-08-24T11:34:33.242Z,66.97
2018-08-24T11:37:01.803Z,64.37
2018-08-24T11:39:30.742Z,64.47
2018-08-24T11:41:59.309Z,66.11
2018-08-24T11:44:27.855Z,66.01
2018-08-24T11:46:56.434Z,66.69
2018-08-24T11:49:25.000Z,65.49
2018-08-24T11:51:53.556Z,64.25
2018-08-24T11:54:22.154Z,64.22
2018-08-24T11:56:50.728Z,61.50
2018-08-24T11:59:19.297Z,61.09
2018-08-24T12:01:47.896Z,60.77
2018-08-24T12:04:16.452Z,59.81
2018-08-24T12:06:44.995Z,60.25
2018-08-24T12:09:13.647Z,59.25
2018-08-24T12:11:42.200Z,59.21
2018-08-24T12:14:11.051Z,59.43
2018-08-24T12:16:39.607Z,59.90
2018-08-24T12:19:08.171Z,59.40
2018-08-24T12:21:36.722Z,58.35
2018-08-24T12:24:05.623Z,59.29
2018-08-24T12:26:34.183Z,58.74
2018-08-24T12:29:02.735Z,59.44
2018-08-24T12:31:31.388Z,59.25
2018-08-24T12:33:59.943Z,58.79
2018-08-24T12:36:28.615Z,59.25
2018-08-24T12:38:57.200Z,58.47
2018-08-24T12:41:25.831Z,58.46
2018-08-24T12:43:54.376Z,59.82
2018-08-24T12:46:22.955Z,58.51
2018-08-24T12:48:51.515Z,57.88
2018-08-24T12:51:20.079Z,58.12
2018-08-24T12:53:48.779Z,58.31
2018-08-24T12:56:19.791Z,58.89
2018-08-24T12:58:49.595Z,58.73
2018-08-24T13:01:18.194Z,58.19
2018-08-24T13:03:46.737Z,56.90
2018-08-24T13:06:15.437Z,57.82
2018-08-24T13:08:44.617Z,57.07
2018-08-24T13:11:13.804Z,57.91
2018-08-24T13:13:42.428Z,57.91
2018-08-24T13:16:11.019Z,57.14
2018-08-24T13:18:39.635Z,57.74
2018-08-24T13:21:08.444Z,57.75
2018-08-24T13:23:37.032Z,58.24
2018-08-24T13:26:05.605Z,58.43
2018-08-24T13:28:34.417Z,58.78
2018-08-24T13:31:02.975Z,57.56
2018-08-24T13:33:31.536Z,56.61
2018-08-24T13:36:00.129Z,54.80
2018-08-24T13:38:28.717Z,53.02
2018-08-24T13:40:57.267Z,52.95
2018-08-24T13:43:26.271Z,53.37
2018-08-24T13:45:54.871Z,52.62
2018-08-24T13:48:23.431Z,51.73
2018-08-24T13:50:52.161Z,51.84
2018-08-24T13:53:20.739Z,51.43
2018-08-24T13:55:49.304Z,51.22
2018-08-24T13:58:18.171Z,49.88
2018-08-24T14:00:46.735Z,49.64
2018-08-24T14:03:15.292Z,48.18
2018-08-24T14:05:43.881Z,48.40
2018-08-24T14:08:12.446Z,47.54
2018-08-24T14:10:41.023Z,48.45
2018-08-24T14:13:09.866Z,47.49
2018-08-24T14:15:38.424Z,47.49
2018-08-24T14:18:07.027Z,46.94
2018-08-24T14:20:35.637Z,47.64
2018-08-24T14:23:04.207Z,47.63
2018-08-24T14:25:32.771Z,46.87
2018-08-24T14:28:01.463Z,47.24
2018-08-24T14:30:30.026Z,48.73
2018-08-24T14:32:58.573Z,49.24
2018-08-24T14:35:27.388Z,49.93
2018-08-24T14:37:55.979Z,49.11
2018-08-24T14:40:24.552Z,49.07
2018-08-24T14:42:53.504Z,49.46
2018-08-24T14:45:22.088Z,49.59
2018-08-24T14:47:50.727Z,49.94
2018-08-24T14:50:19.408Z,50.07
2018-08-24T14:52:47.982Z,50.43
2018-08-24T14:55:16.552Z,49.31
2018-08-24T14:57:45.427Z,49.51
2018-08-24T15:00:14.035Z,50.15
2018-08-24T15:02:42.592Z,49.69
2018-08-24T15:05:12.351Z,50.49
2018-08-24T15:07:41.303Z,50.74
2018-08-24T15:10:11.081Z,50.00
2018-08-24T15:12:40.329Z,49.41
2018-08-24T15:15:08.921Z,50.70
2018-08-24T15:17:38.011Z,50.91
2018-08-24T15:20:08.282Z,50.42
2018-08-24T15:22:36.869Z,49.61
2018-08-24T15:25:05.722Z,49.37
2018-08-24T15:27:34.331Z,48.68
2018-08-24T15:30:03.448Z,48.63
2018-08-24T15:32:32.384Z,48.77
2018-08-24T15:35:01.913Z,49.22
2018-08-24T15:37:30.975Z,48.82
2018-08-24T15:40:00.038Z,49.85
2018-08-24T15:42:28.859Z,49.60
2018-08-24T15:44:57.567Z,49.15
2018-08-24T15:47:26.118Z,49.23
2018-08-24T15:49:54.792Z,49.62
2018-08-24T15:52:23.347Z,49.98
2018-08-24T15:54:51.912Z,50.85
2018-08-24T15:57:20.766Z,50.73
2018-08-24T15:59:49.320Z,50.79
2018-08-24T16:02:17.886Z,50.67
2018-08-24T16:04:46.464Z,51.05
2018-08-24T16:07:15.029Z,50.64
2018-08-24T16:09:43.591Z,51.47
2018-08-24T16:12:12.250Z,51.70
2018-08-24T16:14:40.820Z,52.66
2018-08-24T16:17:09.379Z,51.20
2018-08-24T16:19:38.192Z,51.72
2018-08-24T16:22:06.907Z,50.58
2018-08-24T16:24:35.414Z,50.23
2018-08-24T16:27:04.211Z,50.53
2018-08-24T16:29:32.772Z,50.88
2018-08-24T16:32:01.328Z,50.02
2018-08-24T16:34:29.981Z,50.33
2018-08-24T16:36:58.546Z,50.97
2018-08-24T16:39:27.087Z,50.77
2018-08-24T16:41:56.004Z,50.50
2018-08-24T16:44:24.550Z,50.10
2018-08-24T16:46:53.120Z,50.69
2018-08-24T16:49:21.859Z,50.69
2018-08-24T16:51:50.412Z,50.40
2018-08-24T16:54:18.991Z,50.46
2018-08-24T16:56:48.527Z,50.61
2018-08-24T16:59:17.071Z,50.68
2018-08-24T17:01:45.628Z,51.01
2018-08-24T17:04:14.215Z,51.21
2018-08-24T17:06:42.795Z,50.69
2018-08-24T17:09:12.791Z,51.34
2018-08-24T17:11:41.685Z,51.45
2018-08-24T17:14:10.237Z,50.95
2018-08-24T17:16:38.792Z,51.42
2018-08-24T17:19:07.383Z,51.47
2018-08-24T17:21:35.940Z,50.88
2018-08-24T17:24:04.527Z,50.66
2018-08-24T17:26:33.263Z,51.29
2018-08-24T17:29:01.821Z,51.02
2018-08-24T17:31:30.380Z,51.50
2018-08-24T17:33:59.109Z,50.51
2018-08-24T17:36:27.668Z,50.78
2018-08-24T17:38:56.223Z,51.46
2018-08-24T17:41:24.891Z,51.58
2018-08-24T17:43:53.447Z,51.52
2018-08-24T17:46:22.016Z,51.72
2018-08-24T17:48:50.749Z,52.09
2018-08-24T17:51:19.295Z,52.19
2018-08-24T17:53:47.849Z,52.20
2018-08-24T17:56:16.438Z,51.97
2018-08-24T17:58:45.003Z,51.64
2018-08-24T18:01:13.583Z,51.96
2018-08-24T18:03:42.156Z,52.26
2018-08-24T18:06:10.707Z,52.00
2018-08-24T18:08:39.259Z,52.08
2018-08-24T18:11:08.020Z,52.39
2018-08-24T18:13:36.567Z,52.27
2018-08-24T18:16:05.173Z,52.66
2018-08-24T18:18:33.955Z,52.91
2018-08-24T18:21:02.508Z,53.17
2018-08-24T18:23:31.060Z,53.46
2018-08-24T18:26:00.009Z,53.33
2018-08-24T18:28:28.568Z,52.48
2018-08-24T18:30:57.125Z,53.18
2018-08-24T18:33:25.947Z,52.49
2018-08-24T18:36:24.945Z,52.70
2018-08-24T18:39:22.766Z,52.82
2018-08-24T18:42:17.742Z,52.60
2018-08-24T18:45:11.310Z,52.60
2018-08-24T18:48:03.293Z,52.90
2018-08-24T18:50:51.319Z,52.66
2018-08-24T18:53:20.952Z,53.22
2018-08-24T18:55:49.743Z,53.18
2018-08-24T18:58:18.448Z,53.48
2018-08-24T19:00:46.997Z,53.70
2018-08-24T19:03:15.700Z,53.30
2018-08-24T19:05:44.260Z,53.33
2018-08-24T19:08:13.504Z,53.31
2018-08-24T19:10:47.451Z,53.39
2018-08-24T19:13:17.149Z,53.16
2018-08-24T19:15:47.075Z,53.30
2018-08-24T19:18:20.996Z,52.84
2018-08-24T19:20:54.992Z,53.19
2018-08-24T19:23:23.572Z,52.49
2018-08-24T19:25:52.298Z,53.06
2018-08-24T19:29:25.046Z,52.66
2018-08-24T19:31:54.878Z,52.45
2018-08-24T19:34:32.537Z,52.07
2018-08-24T19:37:01.103Z,52.52
2018-08-24T19:39:29.941Z,52.40
2018-08-24T19:42:03.851Z,52.46
2018-08-24T19:44:33.001Z,52.14
2018-08-24T19:47:01.605Z,52.59
2018-08-24T19:49:30.260Z,52.23
2018-08-24T19:51:58.860Z,52.66
2018-08-24T19:54:27.436Z,52.78
2018-08-24T19:56:58.480Z,52.20
2018-08-24T19:59:27.079Z,53.02
2018-08-24T20:01:55.616Z,52.94
2018-08-24T20:04:24.563Z,52.71
2018-08-24T20:06:58.379Z,53.21
2018-08-24T20:09:32.484Z,52.99
2018-08-24T20:12:01.043Z,53.39
2018-08-24T20:14:34.788Z,53.41
2018-08-24T20:17:08.658Z,53.40
2018-08-24T20:19:37.340Z,53.73
2018-08-24T20:22:08.882Z,53.65
2018-08-24T20:24:37.659Z,53.79
2018-08-24T20:27:06.160Z,53.80
2018-08-24T20:29:34.716Z,53.84
2018-08-24T20:32:03.588Z,53.99
2018-08-24T20:34:32.187Z,54.06
2018-08-24T20:37:00.743Z,54.49
2018-08-24T20:39:29.536Z,54.81
2018-08-24T20:41:58.091Z,54.41
2018-08-24T20:44:26.660Z,54.73
2018-08-24T20:46:55.391Z,55.17
2018-08-24T20:49:23.944Z,54.60
2018-08-24T20:51:52.491Z,54.79
2018-08-24T20:54:21.393Z,54.51
2018-08-24T20:56:49.964Z,54.53
2018-08-24T20:59:18.892Z,54.46
2018-08-24T21:01:47.604Z,54.52
2018-08-24T21:04:16.192Z,54.15
2018-08-24T21:06:44.739Z,54.39
2018-08-24T21:09:13.319Z,53.95
2018-08-24T21:11:42.125Z,53.96
2018-08-24T21:14:10.899Z,53.01
2018-08-24T21:16:39.636Z,53.14
2018-08-24T21:19:08.452Z,52.87
2018-08-24T21:21:37.192Z,53.54
2018-08-24T21:24:06.043Z,53.91
2018-08-24T21:26:34.615Z,54.51
2018-08-24T21:29:03.431Z,54.31
2018-08-24T21:31:32.071Z,54.71
2018-08-24T21:34:00.636Z,53.07
2018-08-24T21:36:29.187Z,52.76
2018-08-24T21:38:57.995Z,51.89
2018-08-24T21:41:26.567Z,51.97
2018-08-24T21:43:55.123Z,51.88
2018-08-24T21:46:23.723Z,51.36
2018-08-24T21:48:52.296Z,51.00
2018-08-24T21:51:20.851Z,50.50
2018-08-24T21:53:49.439Z,49.96
2018-08-24T21:56:17.992Z,50.00
2018-08-24T21:58:46.548Z,50.86
2018-08-24T22:01:15.164Z,51.32
2018-08-24T22:03:43.731Z,51.53
2018-08-24T22:06:12.314Z,51.43
2018-08-24T22:08:41.027Z,50.83
2018-08-24T22:11:09.667Z,50.36
2018-08-24T22:13:38.580Z,50.72
2018-08-24T22:16:07.164Z,51.15
2018-08-24T22:18:35.707Z,51.99
2018-08-24T22:21:04.284Z,52.23
2018-08-24T22:23:32.923Z,52.87
2018-08-24T22:26:01.487Z,53.07
2018-08-24T22:28:30.028Z,52.52
2018-08-24T22:30:58.755Z,52.58
2018-08-24T22:33:27.307Z,52.80
2018-08-24T22:35:55.860Z,52.99
2018-08-24T22:38:24.544Z,52.73
2018-08-24T22:40:53.100Z,52.62
2018-08-24T22:43:26.895Z,52.49
2018-08-24T22:45:55.443Z,52.76
2018-08-24T22:48:24.027Z,52.31
2018-08-24T22:50:52.635Z,52.50
2018-08-24T22:53:21.192Z,51.87
2018-08-24T22:55:50.302Z,51.76
2018-08-24T22:58:18.972Z,52.01
2018-08-24T23:00:47.576Z,51.65
2018-08-24T23:03:16.536Z,52.27
2018-08-24T23:05:45.163Z,52.50
2018-08-24T23:08:13.708Z,52.66
2018-08-24T23:10:42.335Z,52.90
2018-08-24T23:13:11.352Z,53.35
2018-08-24T23:15:39.923Z,52.74
2018-08-24T23:18:08.587Z,52.84
2018-08-24T23:20:37.248Z,52.77
2018-08-24T23:23:05.853Z,53.16
2018-08-24T23:25:34.440Z,52.86
2018-08-24T23:28:03.040Z,52.75
2018-08-24T23:30:31.645Z,53.17
2018-08-24T23:33:00.203Z,53.50
2018-08-24T23:35:28.824Z,53.40
2018-08-24T23:37:57.444Z,53.90
2018-08-24T23:40:26.027Z,54.39
2018-08-24T23:42:54.871Z,53.61
2018-08-24T23:45:23.446Z,54.14
2018-08-24T23:47:52.019Z,54.11
2018-08-24T23:50:20.964Z,54.39
2018-08-24T23:52:49.523Z,54.11
2018-08-24T23:55:18.081Z,54.77
2018-08-24T23:57:46.928Z,54.89
